Time;durP1;ratioP1;P1;durP2;ratioP2;P2;SDS_P1;SDS_P2;PMS_P1;PMS_P2;Temp;Humidity;BMP_temperature;BMP_pressure;BME280_temperature;BME280_humidity;BME280_pressure;Samples;Min_cycle;Max_cycle;Signal;HPM_P1;HPM_P2
2024/04/24 00:01:56;;;;;;;7.87;4.97;;;;;;;;;;5564169;25;20273;-83
2024/04/24 00:04:25;;;;;;;6.63;5.37;;;;;;;;;;5564324;25;20549;-82
2024/04/24 00:06:53;;;;;;;13.77;7.67;;;;;;;;;;5563848;25;20269;-83
2024/04/24 00:09:22;;;;;;;5.47;4.97;;;;;;;;;;5564095;25;20273;-82
2024/04/24 00:11:50;;;;;;;5.17;4.63;;;;;;;;;;5564505;25;20238;-82
2024/04/24 00:14:21;;;;;;;6.93;6.23;;;;;;;;;;5564653;25;20226;-82
2024/04/24 00:16:49;;;;;;;7.30;6.60;;;;;;;;;;5563160;25;20568;-82
2024/04/24 00:19:21;;;;;;;9.40;8.03;;;;;;;;;;5563993;25;20290;-82
2024/04/24 00:21:49;;;;;;;21.00;13.50;;;;;;;;;;5562832;25;20354;-82
2024/04/24 00:24:18;;;;;;;15.23;7.77;;;;;;;;;;5563787;25;20234;-82
2024/04/24 00:26:46;;;;;;;9.87;8.13;;;;;;;;;;5563897;25;20272;-82
2024/04/24 00:29:14;;;;;;;8.53;7.50;;;;;;;;;;5563771;25;20786;-82
2024/04/24 00:31:43;;;;;;;8.10;6.40;;;;;;;;;;5563932;25;20235;-83
2024/04/24 00:34:11;;;;;;;6.87;6.27;;;;;;;;;;5563999;25;20234;-82
2024/04/24 00:36:42;;;;;;;15.80;6.73;;;;;;;;;;5563403;25;20235;-82
2024/04/24 00:39:11;;;;;;;9.73;7.10;;;;;;;;;;5564389;25;20226;-82
2024/04/24 00:41:39;;;;;;;11.87;8.53;;;;;;;;;;5564040;25;20273;-82
2024/04/24 00:44:08;;;;;;;9.40;6.70;;;;;;;;;;5563416;25;20702;-82
2024/04/24 00:46:36;;;;;;;5.60;5.20;;;;;;;;;;5563325;25;20241;-82
2024/04/24 00:49:05;;;;;;;5.33;4.93;;;;;;;;;;5563815;25;20223;-82
2024/04/24 00:51:35;;;;;;;5.30;4.90;;;;;;;;;;5563319;25;20642;-82
2024/04/24 00:54:06;;;;;;;6.80;6.20;;;;;;;;;;5563796;25;20329;-82
2024/04/24 00:56:34;;;;;;;9.10;7.47;;;;;;;;;;5563769;25;20713;-82
2024/04/24 00:59:03;;;;;;;9.00;8.10;;;;;;;;;;5563223;25;20265;-82
2024/04/24 01:01:31;;;;;;;12.17;7.67;;;;;;;;;;5563553;25;20277;-82
2024/04/24 01:04:00;;;;;;;9.33;8.43;;;;;;;;;;5563482;25;20226;-82
2024/04/24 01:06:28;;;;;;;9.60;8.70;;;;;;;;;;5562685;25;20354;-81
2024/04/24 01:08:57;;;;;;;9.60;8.70;;;;;;;;;;5563523;25;20230;-82
2024/04/24 01:11:28;;;;;;;9.73;8.17;;;;;;;;;;5563052;25;20767;-82
2024/04/24 01:13:57;;;;;;;10.07;9.07;;;;;;;;;;5563318;25;20246;-82
2024/04/24 01:16:27;;;;;;;13.00;8.97;;;;;;;;;;5563065;25;20234;-82
2024/04/24 01:19:01;;;;;;;9.13;7.67;;;;;;;;;;5563967;25;20631;-82
2024/04/24 01:21:35;;;;;;;9.87;8.27;;;;;;;;;;5563049;25;20255;-82
2024/04/24 01:24:10;;;;;;;10.33;9.27;;;;;;;;;;5563141;25;20222;-82
2024/04/24 01:26:47;;;;;;;10.63;8.97;;;;;;;;;;5562945;25;20747;-82
2024/04/24 01:29:15;;;;;;;9.93;8.90;;;;;;;;;;5562763;25;20581;-82
2024/04/24 01:31:44;;;;;;;12.87;9.30;;;;;;;;;;5562393;25;20231;-82
2024/04/24 01:34:13;;;;;;;13.00;9.40;;;;;;;;;;5562376;25;20226;-82
2024/04/24 01:36:41;;;;;;;11.97;9.93;;;;;;;;;;5562996;25;20587;-82
2024/04/24 01:39:09;;;;;;;11.00;8.83;;;;;;;;;;5562527;25;20679;-82
2024/04/24 01:41:38;;;;;;;11.60;10.53;;;;;;;;;;5562697;25;20274;-82
2024/04/24 01:44:09;;;;;;;10.43;9.53;;;;;;;;;;5562818;25;20222;-82
2024/04/24 01:46:37;;;;;;;11.23;9.87;;;;;;;;;;5562713;25;20341;-82
2024/04/24 01:49:06;;;;;;;11.30;9.83;;;;;;;;;;5562959;25;20813;-82
2024/04/24 01:51:34;;;;;;;12.27;10.40;;;;;;;;;;5562380;25;20280;-82
2024/04/24 01:54:02;;;;;;;11.77;9.27;;;;;;;;;;5562404;25;20268;-82
2024/04/24 01:56:31;;;;;;;11.43;9.73;;;;;;;;;;5562427;25;20231;-82
2024/04/24 01:58:59;;;;;;;11.77;10.10;;;;;;;;;;5562497;25;20720;-82
2024/04/24 02:01:30;;;;;;;11.07;9.97;;;;;;;;;;5562434;25;20337;-82
2024/04/24 02:03:59;;;;;;;10.63;9.50;;;;;;;;;;5562380;25;20230;-82
2024/04/24 02:06:27;;;;;;;9.43;8.60;;;;;;;;;;5562282;25;20277;-82
2024/04/24 02:08:56;;;;;;;10.00;8.43;;;;;;;;;;5562290;25;20226;-82
2024/04/24 02:11:24;;;;;;;11.30;9.83;;;;;;;;;;5562214;25;20235;-82
2024/04/24 02:13:53;;;;;;;11.90;9.43;;;;;;;;;;5562887;25;20314;-83
2024/04/24 02:16:21;;;;;;;14.30;10.60;;;;;;;;;;5561727;25;20753;-83
2024/04/24 02:18:52;;;;;;;14.03;10.73;;;;;;;;;;5562555;25;20771;-82
2024/04/24 02:21:20;;;;;;;11.53;9.63;;;;;;;;;;5561694;25;20230;-83
2024/04/24 02:23:49;;;;;;;12.77;9.73;;;;;;;;;;5562178;25;20272;-83
2024/04/24 02:26:14;;;;;;;11.93;10.60;;;;;;;;;;5561278;25;20272;-83
2024/04/24 02:28:43;;;;;;;13.13;10.00;;;;;;;;;;5564595;25;20231;-83
2024/04/24 02:31:12;;;;;;;13.43;10.83;;;;;;;;;;5561833;25;20282;-83
2024/04/24 02:33:40;;;;;;;17.03;10.43;;;;;;;;;;5562318;25;20294;-83
2024/04/24 02:36:11;;;;;;;10.90;9.80;;;;;;;;;;5561343;25;20234;-83
2024/04/24 02:38:40;;;;;;;12.20;9.87;;;;;;;;;;5561921;25;20226;-83
2024/04/24 02:41:08;;;;;;;13.10;9.17;;;;;;;;;;5561508;25;20226;-83
2024/04/24 02:43:37;;;;;;;17.83;10.73;;;;;;;;;;5562855;25;20230;-83
2024/04/24 02:46:03;;;;;;;11.80;10.63;;;;;;;;;;5540009;25;20631;-83
2024/04/24 02:48:31;;;;;;;11.53;8.87;;;;;;;;;;5567711;25;20586;-82
2024/04/24 02:51:00;;;;;;;11.13;8.97;;;;;;;;;;5565720;25;20242;-83
2024/04/24 02:53:31;;;;;;;10.03;9.03;;;;;;;;;;5565503;25;20290;-83
2024/04/24 02:55:59;;;;;;;11.20;9.03;;;;;;;;;;5565217;25;20584;-83
2024/04/24 02:58:27;;;;;;;10.57;7.73;;;;;;;;;;5565401;25;20222;-83
2024/04/24 03:00:56;;;;;;;10.67;9.20;;;;;;;;;;5565147;25;20230;-83
2024/04/24 03:03:24;;;;;;;10.77;9.10;;;;;;;;;;5564983;25;20745;-83
2024/04/24 03:05:53;;;;;;;11.67;9.30;;;;;;;;;;5564709;25;20659;-83
2024/04/24 03:08:21;;;;;;;10.53;8.83;;;;;;;;;;5563820;25;20290;-83
2024/04/24 03:10:52;;;;;;;11.87;10.33;;;;;;;;;;5561842;25;20235;-80
2024/04/24 03:13:21;;;;;;;11.37;9.77;;;;;;;;;;5564785;25;20294;-80
2024/04/24 03:15:49;;;;;;;9.97;8.73;;;;;;;;;;5539916;25;20567;-79
2024/04/24 03:18:18;;;;;;;9.13;8.23;;;;;;;;;;5564410;25;20264;-79
2024/04/24 03:20:46;;;;;;;9.37;8.07;;;;;;;;;;5565346;25;20306;-78
2024/04/24 03:23:15;;;;;;;10.10;8.63;;;;;;;;;;5564959;25;20230;-79
2024/04/24 03:25:43;;;;;;;11.63;9.00;;;;;;;;;;5564396;25;20303;-79
2024/04/24 03:28:14;;;;;;;10.43;9.33;;;;;;;;;;5564812;25;20583;-79
2024/04/24 03:30:43;;;;;;;11.17;9.77;;;;;;;;;;5564908;25;20729;-79
2024/04/24 03:33:11;;;;;;;12.37;11.07;;;;;;;;;;5564850;25;20238;-79
2024/04/24 03:35:40;;;;;;;14.37;10.00;;;;;;;;;;5564425;25;20387;-79
2024/04/24 03:38:08;;;;;;;18.40;9.30;;;;;;;;;;5564670;25;20713;-79
2024/04/24 03:40:36;;;;;;;8.93;8.03;;;;;;;;;;5565711;25;20368;-79
2024/04/24 03:43:05;;;;;;;15.80;9.83;;;;;;;;;;5564591;25;20266;-80
2024/04/24 03:45:36;;;;;;;9.73;8.50;;;;;;;;;;5564302;25;20235;-79
2024/04/24 03:48:05;;;;;;;12.10;8.07;;;;;;;;;;5565068;25;20274;-80
2024/04/24 03:50:34;;;;;;;16.70;7.77;;;;;;;;;;5564661;25;20230;-79
2024/04/24 03:53:02;;;;;;;8.53;7.73;;;;;;;;;;5564975;25;20239;-78
2024/04/24 03:55:31;;;;;;;9.73;7.10;;;;;;;;;;5563484;25;20278;-79
2024/04/24 03:57:59;;;;;;;8.30;7.30;;;;;;;;;;5564602;25;20234;-79
2024/04/24 04:00:27;;;;;;;9.47;7.40;;;;;;;;;;5564539;25;20222;-79
2024/04/24 04:02:59;;;;;;;8.57;7.23;;;;;;;;;;5564666;25;20231;-79
2024/04/24 04:05:27;;;;;;;9.23;8.17;;;;;;;;;;5563554;25;20751;-79
2024/04/24 04:07:59;;;;;;;15.40;9.27;;;;;;;;;;5550288;25;20235;-79
2024/04/24 04:10:28;;;;;;;8.23;7.43;;;;;;;;;;5554522;25;20232;-79
2024/04/24 04:12:56;;;;;;;8.37;7.57;;;;;;;;;;5529014;25;20274;-79
2024/04/24 04:15:25;;;;;;;7.17;6.57;;;;;;;;;;5533246;25;20236;-79
2024/04/24 04:17:54;;;;;;;7.23;5.93;;;;;;;;;;5531714;25;20619;-79
2024/04/24 04:20:25;;;;;;;6.83;6.13;;;;;;;;;;5543714;25;20680;-79
2024/04/24 04:23:00;;;;;;;9.20;6.97;;;;;;;;;;5563867;25;20721;-79
2024/04/24 04:25:28;;;;;;;9.00;6.30;;;;;;;;;;5563844;25;20344;-79
2024/04/24 04:27:57;;;;;;;6.83;6.23;;;;;;;;;;5547542;25;20232;-79
2024/04/24 04:30:25;;;;;;;5.67;5.17;;;;;;;;;;5555483;25;20290;-80
2024/04/24 04:32:53;;;;;;;7.33;6.57;;;;;;;;;;5563738;25;20230;-79
2024/04/24 04:35:24;;;;;;;6.90;6.27;;;;;;;;;;5563792;25;20234;-79
2024/04/24 04:37:53;;;;;;;6.27;5.67;;;;;;;;;;5563749;25;20302;-79
2024/04/24 04:40:21;;;;;;;7.93;6.63;;;;;;;;;;5563770;25;20282;-79
2024/04/24 04:42:50;;;;;;;6.07;5.57;;;;;;;;;;5544347;25;20275;-79
2024/04/24 04:45:18;;;;;;;6.30;5.70;;;;;;;;;;5558875;25;20294;-79
2024/04/24 04:47:46;;;;;;;6.13;5.53;;;;;;;;;;5563854;25;20613;-79
2024/04/24 04:50:15;;;;;;;7.07;6.23;;;;;;;;;;5553920;25;20330;-79
2024/04/24 04:52:46;;;;;;;7.07;6.37;;;;;;;;;;5525735;25;20262;-79
2024/04/24 04:55:15;;;;;;;7.00;5.80;;;;;;;;;;5524820;25;20235;-79
2024/04/24 04:57:44;;;;;;;6.63;6.03;;;;;;;;;;5550793;25;20223;-80
2024/04/24 05:00:13;;;;;;;7.10;6.03;;;;;;;;;;5538533;25;20295;-79
2024/04/24 05:02:42;;;;;;;8.07;6.03;;;;;;;;;;5562325;25;20247;-79
2024/04/24 05:05:10;;;;;;;6.40;5.83;;;;;;;;;;5562501;25;20261;-79
2024/04/24 05:07:39;;;;;;;6.53;5.97;;;;;;;;;;5542826;25;20267;-79
2024/04/24 05:10:10;;;;;;;7.57;6.63;;;;;;;;;;5557920;25;20290;-80
2024/04/24 05:12:39;;;;;;;6.57;5.97;;;;;;;;;;5563723;25;20348;-79
2024/04/24 05:15:05;;;;;;;7.20;6.50;;;;;;;;;;5563022;25;20350;-79
2024/04/24 05:17:34;;;;;;;6.27;5.37;;;;;;;;;;5565899;25;20778;-79
2024/04/24 05:20:03;;;;;;;6.50;5.90;;;;;;;;;;5562681;25;20351;-79
2024/04/24 05:22:36;;;;;;;6.80;6.20;;;;;;;;;;5563302;25;20768;-79
2024/04/24 05:25:04;;;;;;;7.03;6.27;;;;;;;;;;5562936;25;20260;-79
2024/04/24 05:30:19;;;;;;;6.70;6.10;;;;;;;;;;5471523;26;20227;-79
2024/04/24 05:32:49;;;;;;;8.13;6.77;;;;;;;;;;5557618;25;20226;-79
2024/04/24 05:35:17;;;;;;;8.37;6.43;;;;;;;;;;5562559;25;20231;-79
2024/04/24 05:37:46;;;;;;;7.77;6.97;;;;;;;;;;5562929;25;20226;-79
2024/04/24 05:40:14;;;;;;;7.67;6.53;;;;;;;;;;5563071;25;20272;-79
2024/04/24 05:42:46;;;;;;;7.50;6.87;;;;;;;;;;5562635;25;20230;-79
2024/04/24 05:45:14;;;;;;;8.63;6.87;;;;;;;;;;5562643;25;20234;-79
2024/04/24 05:47:40;;;;;;;6.73;6.13;;;;;;;;;;5562295;25;20234;-79
2024/04/24 05:50:09;;;;;;;7.20;6.50;;;;;;;;;;5565863;25;20238;-79
2024/04/24 05:52:37;;;;;;;7.07;6.30;;;;;;;;;;5538758;25;20753;-79
2024/04/24 05:55:06;;;;;;;8.33;6.37;;;;;;;;;;5562566;25;20273;-79
2024/04/24 05:57:34;;;;;;;7.10;6.50;;;;;;;;;;5562670;25;20231;-79
2024/04/24 06:00:06;;;;;;;6.50;5.90;;;;;;;;;;5561946;25;20277;-79
2024/04/24 06:02:35;;;;;;;6.93;6.33;;;;;;;;;;5565523;25;20230;-79
2024/04/24 06:05:03;;;;;;;6.57;5.87;;;;;;;;;;5561798;25;20273;-79
2024/04/24 06:07:31;;;;;;;8.40;6.47;;;;;;;;;;5562267;25;20227;-79
2024/04/24 06:10:00;;;;;;;7.30;6.60;;;;;;;;;;5562207;25;20222;-79
2024/04/24 06:12:28;;;;;;;6.87;5.90;;;;;;;;;;5562421;25;20234;-78
2024/04/24 06:14:57;;;;;;;6.17;5.67;;;;;;;;;;5561841;25;20227;-78
2024/04/24 06:17:28;;;;;;;7.07;6.43;;;;;;;;;;5561978;25;20289;-79
2024/04/24 06:19:56;;;;;;;7.37;5.80;;;;;;;;;;5564889;25;20234;-79
2024/04/24 06:22:25;;;;;;;7.80;5.93;;;;;;;;;;5566420;25;20227;-79
2024/04/24 06:24:53;;;;;;;7.70;5.40;;;;;;;;;;5565178;25;20234;-79
2024/04/24 06:27:21;;;;;;;8.10;5.50;;;;;;;;;;5566029;25;20260;-79
2024/04/24 06:29:50;;;;;;;7.73;6.90;;;;;;;;;;5565431;25;20812;-78
2024/04/24 06:32:18;;;;;;;6.90;5.77;;;;;;;;;;5565827;25;20230;-79
2024/04/24 06:34:49;;;;;;;7.63;6.20;;;;;;;;;;5565549;25;20234;-79
2024/04/24 06:37:18;;;;;;;6.77;4.93;;;;;;;;;;5565772;25;20568;-79
2024/04/24 06:39:46;;;;;;;11.37;5.80;;;;;;;;;;5541036;25;20797;-79
2024/04/24 06:42:14;;;;;;;10.47;6.23;;;;;;;;;;5564983;25;20235;-79
2024/04/24 06:44:43;;;;;;;6.67;5.70;;;;;;;;;;5565473;25;20231;-80
2024/04/24 06:47:11;;;;;;;6.83;5.10;;;;;;;;;;5565170;25;20709;-79
2024/04/24 06:49:42;;;;;;;9.00;4.83;;;;;;;;;;5565308;25;20589;-79
2024/04/24 06:52:13;;;;;;;7.27;5.70;;;;;;;;;;5565541;25;20277;-78
2024/04/24 06:54:41;;;;;;;7.70;5.37;;;;;;;;;;5565615;25;20359;-78
2024/04/24 06:57:10;;;;;;;7.77;5.23;;;;;;;;;;5564854;25;20575;-78
2024/04/24 06:59:38;;;;;;;7.10;5.43;;;;;;;;;;5565232;25;20269;-79
2024/04/24 07:02:06;;;;;;;12.33;6.63;;;;;;;;;;5565315;25;20235;-79
2024/04/24 07:04:35;;;;;;;6.47;5.60;;;;;;;;;;5565179;25;20741;-79
2024/04/24 07:07:03;;;;;;;7.23;5.30;;;;;;;;;;5565109;25;20277;-79
2024/04/24 07:09:34;;;;;;;7.50;5.37;;;;;;;;;;5565089;25;20595;-79
2024/04/24 07:12:03;;;;;;;7.00;4.77;;;;;;;;;;5565227;25;20698;-79
2024/04/24 07:14:31;;;;;;;8.63;5.00;;;;;;;;;;5564840;25;20729;-79
2024/04/24 07:16:59;;;;;;;8.47;4.50;;;;;;;;;;5565091;25;20891;-79
2024/04/24 07:19:29;;;;;;;9.87;4.87;;;;;;;;;;5564764;25;20234;-79
2024/04/24 07:21:57;;;;;;;8.80;5.93;;;;;;;;;;5565517;25;20273;-79
2024/04/24 07:24:25;;;;;;;7.43;4.93;;;;;;;;;;5564414;25;20307;-78
2024/04/24 07:26:56;;;;;;;7.33;4.67;;;;;;;;;;5565358;25;20233;-79
2024/04/24 07:29:25;;;;;;;8.30;5.13;;;;;;;;;;5564463;25;20223;-79
2024/04/24 07:31:53;;;;;;;7.67;5.00;;;;;;;;;;5564792;25;20275;-79
2024/04/24 07:34:21;;;;;;;5.60;4.27;;;;;;;;;;5564817;25;20634;-79
2024/04/24 07:36:50;;;;;;;8.67;6.13;;;;;;;;;;5564681;25;20571;-79
2024/04/24 07:39:19;;;;;;;8.93;5.33;;;;;;;;;;5564772;25;20278;-79
2024/04/24 07:41:47;;;;;;;8.87;5.13;;;;;;;;;;5564819;25;20275;-79
2024/04/24 07:44:18;;;;;;;10.50;4.97;;;;;;;;;;5564750;25;20314;-78
2024/04/24 07:46:46;;;;;;;5.97;4.63;;;;;;;;;;5564352;25;20281;-78
2024/04/24 07:49:15;;;;;;;9.77;4.47;;;;;;;;;;5564502;25;20347;-78
2024/04/24 07:51:43;;;;;;;5.83;5.17;;;;;;;;;;5565154;25;20302;-79
2024/04/24 07:54:12;;;;;;;7.57;4.23;;;;;;;;;;5564371;25;20234;-78
2024/04/24 07:56:43;;;;;;;8.70;6.60;;;;;;;;;;5564227;25;20276;-79
2024/04/24 07:59:12;;;;;;;8.70;5.60;;;;;;;;;;5540916;25;20311;-79
2024/04/24 08:01:43;;;;;;;7.37;5.00;;;;;;;;;;5564511;25;20226;-78
2024/04/24 08:04:12;;;;;;;14.10;8.30;;;;;;;;;;5564651;25;20234;-79
2024/04/24 08:06:43;;;;;;;11.50;5.10;;;;;;;;;;5563764;25;20223;-78
2024/04/24 08:09:13;;;;;;;10.60;4.50;;;;;;;;;;5564244;25;20234;-78
2024/04/24 08:11:41;;;;;;;7.63;5.00;;;;;;;;;;5563927;25;20811;-78
2024/04/24 08:14:09;;;;;;;8.73;6.40;;;;;;;;;;5564143;25;20230;-78
2024/04/24 08:16:38;;;;;;;6.33;5.43;;;;;;;;;;5563692;25;20231;-79
2024/04/24 08:19:09;;;;;;;9.13;6.63;;;;;;;;;;5564335;25;20235;-78
2024/04/24 08:21:37;;;;;;;14.87;7.60;;;;;;;;;;5563938;25;20222;-78
2024/04/24 08:24:06;;;;;;;21.60;14.00;;;;;;;;;;5564288;25;20231;-78
2024/04/24 08:26:35;;;;;;;17.87;12.53;;;;;;;;;;5563819;25;20261;-78
2024/04/24 08:29:03;;;;;;;12.37;8.57;;;;;;;;;;5563934;25;20601;-78
2024/04/24 08:31:31;;;;;;;14.50;10.43;;;;;;;;;;5552553;25;20722;-79
2024/04/24 08:34:00;;;;;;;16.37;10.37;;;;;;;;;;5551729;25;20745;-78
2024/04/24 08:36:31;;;;;;;22.80;13.67;;;;;;;;;;5563722;25;20277;-78
2024/04/24 08:38:59;;;;;;;13.93;10.20;;;;;;;;;;5563700;25;20226;-79
2024/04/24 08:41:28;;;;;;;11.00;8.37;;;;;;;;;;5562593;25;20721;-78
2024/04/24 08:43:57;;;;;;;14.47;10.47;;;;;;;;;;5563548;25;20698;-78
2024/04/24 08:46:28;;;;;;;18.07;11.33;;;;;;;;;;5563164;25;20632;-79
2024/04/24 08:48:56;;;;;;;17.10;11.90;;;;;;;;;;5563664;25;20230;-78
2024/04/24 08:51:26;;;;;;;12.37;7.47;;;;;;;;;;5563657;25;20246;-79
2024/04/24 08:54:02;;;;;;;13.10;8.43;;;;;;;;;;5563856;25;20625;-79
2024/04/24 08:56:35;;;;;;;11.73;7.87;;;;;;;;;;5563826;25;20712;-78
2024/04/24 08:59:06;;;;;;;12.63;9.30;;;;;;;;;;5563032;25;20277;-78
2024/04/24 09:01:39;;;;;;;13.63;9.53;;;;;;;;;;5563380;25;20276;-78
2024/04/24 09:04:08;;;;;;;10.83;8.87;;;;;;;;;;5563683;25;20277;-78
2024/04/24 09:06:40;;;;;;;9.50;7.80;;;;;;;;;;5563598;25;20277;-78
2024/04/24 09:09:11;;;;;;;13.80;8.40;;;;;;;;;;5563662;25;20336;-78
2024/04/24 09:11:40;;;;;;;11.93;8.17;;;;;;;;;;5563626;25;20310;-78
2024/04/24 09:14:08;;;;;;;18.20;8.17;;;;;;;;;;5563507;25;20284;-78
2024/04/24 09:16:38;;;;;;;13.93;8.03;;;;;;;;;;5562887;25;20222;-78
2024/04/24 09:19:07;;;;;;;13.60;8.77;;;;;;;;;;5563123;25;20234;-78
2024/04/24 09:21:35;;;;;;;13.17;9.30;;;;;;;;;;5563379;25;20693;-78
2024/04/24 09:24:04;;;;;;;14.67;8.53;;;;;;;;;;5563292;25;20289;-78
2024/04/24 09:26:35;;;;;;;16.53;9.60;;;;;;;;;;5562314;25;20277;-78
2024/04/24 09:29:03;;;;;;;13.10;8.63;;;;;;;;;;5563128;25;20234;-78
2024/04/24 09:31:32;;;;;;;15.50;9.03;;;;;;;;;;5538727;25;20234;-78
2024/04/24 09:34:00;;;;;;;11.93;8.30;;;;;;;;;;5563016;25;20630;-78
2024/04/24 09:36:31;;;;;;;10.83;7.03;;;;;;;;;;5563065;25;20235;-78
2024/04/24 09:39:00;;;;;;;9.27;5.93;;;;;;;;;;5562628;25;20611;-78
2024/04/24 09:41:29;;;;;;;10.63;7.03;;;;;;;;;;5563147;25;20551;-78
2024/04/24 09:44:00;;;;;;;10.60;5.67;;;;;;;;;;5562717;25;20230;-78
2024/04/24 09:46:28;;;;;;;16.57;6.73;;;;;;;;;;5562923;25;20367;-78
2024/04/24 09:48:57;;;;;;;15.67;7.27;;;;;;;;;;5562701;25;20645;-78
2024/04/24 09:51:26;;;;;;;8.00;6.10;;;;;;;;;;5562365;25;20278;-78
2024/04/24 09:53:57;;;;;;;18.33;7.63;;;;;;;;;;5569765;25;20226;-78
2024/04/24 09:56:27;;;;;;;15.97;8.23;;;;;;;;;;5570723;25;20619;-78
2024/04/24 09:59:02;;;;;;;14.23;10.17;;;;;;;;;;5570191;25;20238;-78
2024/04/24 10:01:31;;;;;;;11.67;7.17;;;;;;;;;;5570636;25;20229;-78
2024/04/24 10:04:00;;;;;;;12.87;7.23;;;;;;;;;;5570653;25;20780;-78
2024/04/24 10:06:30;;;;;;;17.53;12.60;;;;;;;;;;5569751;25;20238;-78
2024/04/24 10:09:00;;;;;;;15.30;9.63;;;;;;;;;;5570457;25;20362;-78
2024/04/24 10:11:31;;;;;;;12.50;7.30;;;;;;;;;;5569940;25;20281;-78
2024/04/24 10:14:05;;;;;;;11.80;7.57;;;;;;;;;;5570603;25;20760;-78
2024/04/24 10:16:34;;;;;;;19.83;7.33;;;;;;;;;;5570025;25;20261;-78
2024/04/24 10:19:04;;;;;;;13.27;7.93;;;;;;;;;;5570149;25;20293;-78
2024/04/24 10:21:32;;;;;;;16.33;8.53;;;;;;;;;;5569899;25;20354;-78
2024/04/24 10:24:03;;;;;;;17.50;8.57;;;;;;;;;;5570279;25;20264;-78
2024/04/24 10:26:31;;;;;;;11.30;8.47;;;;;;;;;;5569822;25;20222;-78
2024/04/24 10:29:02;;;;;;;12.27;8.90;;;;;;;;;;5570299;25;20311;-78
2024/04/24 10:31:31;;;;;;;14.90;9.50;;;;;;;;;;5569788;25;20234;-78
2024/04/24 10:34:00;;;;;;;14.27;9.30;;;;;;;;;;5570057;25;20590;-78
2024/04/24 10:36:28;;;;;;;13.10;9.33;;;;;;;;;;5569696;25;20234;-78
2024/04/24 10:38:57;;;;;;;15.37;8.53;;;;;;;;;;5569561;25;20231;-78
2024/04/24 10:41:25;;;;;;;9.10;7.53;;;;;;;;;;5569761;25;20268;-78
2024/04/24 10:43:54;;;;;;;14.20;8.73;;;;;;;;;;5569523;25;20663;-78
2024/04/24 10:46:27;;;;;;;14.53;8.40;;;;;;;;;;5569408;25;20341;-77
2024/04/24 10:48:57;;;;;;;21.53;12.40;;;;;;;;;;5569379;25;20226;-78
2024/04/24 10:51:30;;;;;;;12.27;8.13;;;;;;;;;;5569641;25;20230;-78
2024/04/24 10:54:01;;;;;;;10.33;9.07;;;;;;;;;;5569249;25;20243;-77
2024/04/24 10:56:32;;;;;;;11.63;7.23;;;;;;;;;;5569905;25;20732;-78
2024/04/24 10:59:00;;;;;;;15.17;8.37;;;;;;;;;;5569359;25;20230;-77
2024/04/24 11:01:32;;;;;;;14.07;8.60;;;;;;;;;;5569187;25;20623;-78
2024/04/24 11:04:02;;;;;;;12.70;8.63;;;;;;;;;;5567803;25;20779;-77
2024/04/24 11:06:31;;;;;;;16.97;9.70;;;;;;;;;;5564854;25;20235;-78
2024/04/24 11:08:59;;;;;;;19.00;11.43;;;;;;;;;;5565045;25;20230;-77
2024/04/24 11:11:28;;;;;;;18.13;11.10;;;;;;;;;;5564983;25;20277;-78
2024/04/24 11:14:03;;;;;;;18.00;12.03;;;;;;;;;;5564948;25;20286;-78
2024/04/24 11:16:34;;;;;;;24.17;16.50;;;;;;;;;;5564546;25;20780;-77
2024/04/24 11:19:03;;;;;;;20.30;14.17;;;;;;;;;;5564728;25;20230;-77
2024/04/24 11:21:29;;;;;;;22.13;12.23;;;;;;;;;;5564649;25;20566;-77
2024/04/24 11:23:58;;;;;;;48.93;25.67;;;;;;;;;;5547741;25;20232;-78
2024/04/24 11:26:32;;;;;;;37.60;23.57;;;;;;;;;;5560533;25;20345;-78
2024/04/24 11:29:02;;;;;;;31.13;16.83;;;;;;;;;;5565122;25;20272;-77
2024/04/24 11:31:34;;;;;;;19.87;15.53;;;;;;;;;;5564519;25;20277;-77
2024/04/24 11:34:03;;;;;;;19.47;11.00;;;;;;;;;;5539703;25;20232;-77
2024/04/24 11:36:32;;;;;;;35.57;19.83;;;;;;;;;;5564465;25;20362;-77
2024/04/24 11:39:02;;;;;;;38.37;18.57;;;;;;;;;;5564638;25;20277;-78
2024/04/24 11:41:32;;;;;;;26.33;12.80;;;;;;;;;;5564485;25;20280;-77
2024/04/24 11:44:01;;;;;;;23.37;14.97;;;;;;;;;;5564621;25;20231;-77
2024/04/24 11:46:30;;;;;;;25.00;13.00;;;;;;;;;;5564874;25;20273;-78
2024/04/24 11:49:04;;;;;;;28.47;15.00;;;;;;;;;;5564266;25;20298;-77
2024/04/24 11:51:34;;;;;;;34.00;14.70;;;;;;;;;;5564423;25;20234;-77
2024/04/24 11:54:04;;;;;;;24.47;13.53;;;;;;;;;;5564522;25;20270;-77
2024/04/24 11:56:34;;;;;;;32.97;15.57;;;;;;;;;;5564517;25;20227;-77
2024/04/24 11:59:02;;;;;;;28.47;12.87;;;;;;;;;;5564101;25;20278;-77
2024/04/24 12:01:32;;;;;;;30.10;13.73;;;;;;;;;;5564343;25;20245;-77
2024/04/24 12:04:00;;;;;;;29.67;14.23;;;;;;;;;;5539567;25;20230;-78
2024/04/24 12:06:29;;;;;;;21.50;9.30;;;;;;;;;;5566248;25;20337;-78
2024/04/24 12:09:00;;;;;;;17.97;10.03;;;;;;;;;;5564386;25;20290;-78
2024/04/24 12:11:29;;;;;;;21.63;9.37;;;;;;;;;;5566615;25;20235;-78
2024/04/24 12:13:57;;;;;;;21.90;9.50;;;;;;;;;;5564166;25;20230;-77
2024/04/24 12:16:27;;;;;;;24.33;11.10;;;;;;;;;;5561922;25;20894;-78
2024/04/24 12:18:56;;;;;;;14.07;9.87;;;;;;;;;;5564458;25;20235;-77
2024/04/24 12:21:27;;;;;;;24.87;12.53;;;;;;;;;;5563967;25;20226;-77
2024/04/24 12:23:56;;;;;;;21.63;11.40;;;;;;;;;;5564340;25;20234;-77
2024/04/24 12:26:26;;;;;;;25.03;11.40;;;;;;;;;;5563866;25;20230;-77
2024/04/24 12:28:57;;;;;;;16.13;8.07;;;;;;;;;;5564376;25;20242;-77
2024/04/24 12:31:26;;;;;;;23.83;12.73;;;;;;;;;;5563915;25;20235;-77
2024/04/24 12:33:57;;;;;;;34.27;13.23;;;;;;;;;;5564225;25;20222;-77
2024/04/24 12:36:28;;;;;;;27.80;11.00;;;;;;;;;;5539833;25;20234;-77
2024/04/24 12:38:57;;;;;;;23.47;9.37;;;;;;;;;;5563986;25;20416;-77
2024/04/24 12:41:25;;;;;;;30.77;15.23;;;;;;;;;;5564046;25;20276;-77
2024/04/24 12:43:54;;;;;;;31.60;13.40;;;;;;;;;;5564033;25;20230;-77
2024/04/24 12:46:22;;;;;;;42.00;17.63;;;;;;;;;;5563060;25;20235;-77
2024/04/24 12:48:57;;;;;;;33.97;13.23;;;;;;;;;;5563560;25;20333;-77
2024/04/24 12:51:28;;;;;;;30.30;16.27;;;;;;;;;;5563641;25;20367;-77
2024/04/24 12:53:56;;;;;;;20.00;8.20;;;;;;;;;;5563249;25;20234;-77
2024/04/24 12:56:27;;;;;;;28.53;10.33;;;;;;;;;;5563407;25;20234;-77
2024/04/24 12:58:55;;;;;;;31.37;10.93;;;;;;;;;;5563941;25;20342;-77
2024/04/24 13:01:24;;;;;;;20.90;7.97;;;;;;;;;;5563192;25;20272;-77
2024/04/24 13:03:53;;;;;;;15.43;7.43;;;;;;;;;;5563376;25;20294;-77
2024/04/24 13:06:21;;;;;;;25.27;8.20;;;;;;;;;;5563355;25;20223;-77
2024/04/24 13:08:55;;;;;;;23.27;9.53;;;;;;;;;;5563356;25;20227;-77
2024/04/24 13:11:24;;;;;;;29.60;10.20;;;;;;;;;;5563361;25;20610;-78
2024/04/24 13:13:53;;;;;;;20.67;10.17;;;;;;;;;;5563462;25;20238;-77
2024/04/24 13:16:21;;;;;;;25.73;9.87;;;;;;;;;;5562748;25;20234;-77
2024/04/24 13:18:50;;;;;;;42.87;10.07;;;;;;;;;;5563533;25;20222;-77
2024/04/24 13:21:18;;;;;;;29.10;10.73;;;;;;;;;;5562953;25;20633;-77
2024/04/24 13:23:47;;;;;;;19.77;7.47;;;;;;;;;;5563452;25;20367;-77
2024/04/24 13:26:18;;;;;;;15.80;8.70;;;;;;;;;;5562744;25;20358;-78
2024/04/24 13:28:46;;;;;;;19.50;7.07;;;;;;;;;;5562436;25;20230;-77
2024/04/24 13:31:15;;;;;;;21.13;7.97;;;;;;;;;;5562609;25;20330;-77
2024/04/24 13:33:44;;;;;;;21.70;7.70;;;;;;;;;;5563237;25;20294;-77
2024/04/24 13:36:12;;;;;;;21.17;10.07;;;;;;;;;;5562779;25;20223;-77
2024/04/24 13:38:42;;;;;;;19.77;8.33;;;;;;;;;;5563126;25;20366;-77
2024/04/24 13:41:11;;;;;;;27.27;7.43;;;;;;;;;;5562135;25;20230;-77
2024/04/24 13:43:44;;;;;;;22.30;6.10;;;;;;;;;;5562851;25;20230;-77
2024/04/24 13:46:12;;;;;;;17.83;6.80;;;;;;;;;;5538580;25;20226;-77
2024/04/24 13:48:40;;;;;;;25.47;6.80;;;;;;;;;;5562650;25;20230;-77
2024/04/24 13:51:09;;;;;;;24.37;7.30;;;;;;;;;;5562588;25;20294;-77
2024/04/24 13:53:38;;;;;;;16.27;6.13;;;;;;;;;;5562957;25;20275;-77
2024/04/24 13:56:06;;;;;;;24.53;7.67;;;;;;;;;;5563135;25;20227;-78
2024/04/24 13:58:36;;;;;;;19.30;6.70;;;;;;;;;;5562634;25;20230;-77
2024/04/24 14:01:07;;;;;;;15.40;6.33;;;;;;;;;;5562279;25;20238;-77
2024/04/24 14:03:36;;;;;;;25.20;7.80;;;;;;;;;;5562042;25;20265;-77
2024/04/24 14:06:04;;;;;;;22.83;7.03;;;;;;;;;;5561944;25;20226;-77
2024/04/24 14:08:33;;;;;;;28.80;6.93;;;;;;;;;;5562036;25;20231;-78
2024/04/24 14:11:01;;;;;;;23.53;6.63;;;;;;;;;;5562565;25;20223;-78
2024/04/24 14:13:30;;;;;;;18.97;6.90;;;;;;;;;;5562807;25;20234;-77
2024/04/24 14:15:58;;;;;;;21.27;7.70;;;;;;;;;;5562069;25;20761;-77
2024/04/24 14:18:29;;;;;;;23.07;7.13;;;;;;;;;;5562702;25;20234;-77
2024/04/24 14:20:58;;;;;;;27.13;8.40;;;;;;;;;;5562151;25;20273;-77
2024/04/24 14:23:26;;;;;;;28.03;8.53;;;;;;;;;;5562222;25;20555;-77
2024/04/24 14:25:55;;;;;;;54.40;19.37;;;;;;;;;;5561470;25;20341;-78
2024/04/24 14:28:24;;;;;;;57.57;25.03;;;;;;;;;;5562670;25;20226;-77
2024/04/24 14:30:52;;;;;;;40.43;14.87;;;;;;;;;;5561359;25;20223;-77
2024/04/24 14:33:21;;;;;;;59.70;26.67;;;;;;;;;;5561948;25;20277;-77
2024/04/24 14:35:52;;;;;;;41.50;16.10;;;;;;;;;;5561262;25;20234;-77
2024/04/24 14:38:22;;;;;;;37.17;16.07;;;;;;;;;;5562011;25;20273;-77
2024/04/24 14:40:53;;;;;;;35.17;14.97;;;;;;;;;;5564395;25;20277;-77
2024/04/24 14:43:21;;;;;;;28.60;12.50;;;;;;;;;;5565652;25;20353;-77
2024/04/24 14:45:50;;;;;;;21.80;11.47;;;;;;;;;;5564856;25;20272;-77